Main page
METAR-TAF:

METAR-TAF

Airports :

Jersey Airport

Jersey,

latitude: 49-13N, longitude: 002-12W, elevation: 84 m

Current weather observation

The report was made 32 minutes ago, at 09:50 UTC
Wind 20 kt from the East/Northeast
Temperature 7°C
Humidity 70%
Pressure 1016 hPa
Visibility 10 km or more
Few clouds at a height of 2200 ft

METAR: EGJJ 190950Z 06020KT 9999 FEW022 07/02 Q1016

Time: 10:22 (10:22 UTC)

Forecast

The report was made 2 hours and 18 minutes ago, at 08:04 UTC
Forecast valid from 19 at 09 UTC to 19 at 18 UTC
Wind 17 kt from the East with gusts up to 28 kt
Visibility 10 km or more
Few clouds at a height of 2000 ft
Probability 30% :
Temporary
from 19 at 16 UTC to 19 at 18 UTC
Visibility: 7000 m
Broken clouds at a height of 1800 ft
rain showers

TAF: EGJJ 190804Z 1909/1918 08017G28KT 9999 FEW020 PROB30 TEMPO 1916/1918 7000 SHRA BKN018

Weather observations and forecasts of more than 4000 airports (METAR and TAF reports).

The available stations are represented by yellow and red dots on the map.

Hover mouse over dot to see the name of the station.

Then click to see weather observations and forecasts.

To change the map : click on the green buttons with a black cross to zoom in, on the green button with a dash to zoom out, or on the green arrows for adjacent maps.


METAR-TAF: